Time;durP1;ratioP1;P1;durP2;ratioP2;P2;SDS_P1;SDS_P2;PMS_P1;PMS_P2;Temp;Humidity;BMP_temperature;BMP_pressure;BME280_temperature;BME280_humidity;BME280_pressure;Samples;Min_cycle;Max_cycle;Signal;HPM_P1;HPM_P2
2022/02/23 00:00:17;;;;;;;4.25;2.90;;;6.50;99.90;;;;;;5077952;28;20103;-75
2022/02/23 00:02:43;;;;;;;6.53;3.95;;;6.60;99.90;;;;;;5083605;28;20028;-74
2022/02/23 00:05:09;;;;;;;6.72;3.78;;;6.80;99.90;;;;;;5079051;28;20581;-74
2022/02/23 00:07:35;;;;;;;6.90;4.63;;;6.90;99.90;;;;;;5069602;28;20432;-75
2022/02/23 00:10:01;;;;;;;6.07;3.55;;;6.90;99.90;;;;;;5083680;28;20031;-73
2022/02/23 00:12:27;;;;;;;5.35;2.97;;;6.70;99.90;;;;;;5063358;28;20016;-74
2022/02/23 00:14:53;;;;;;;3.97;3.50;;;6.60;99.90;;;;;;5082731;28;20151;-73
2022/02/23 00:17:20;;;;;;;10.25;4.20;;;6.70;99.90;;;;;;5079212;28;20089;-74
2022/02/23 00:19:46;;;;;;;6.45;4.30;;;6.80;99.90;;;;;;5074041;28;20028;-73
2022/02/23 00:22:12;;;;;;;7.22;3.58;;;6.80;99.90;;;;;;5066209;28;20030;-74
2022/02/23 00:24:38;;;;;;;4.85;3.15;;;6.70;99.90;;;;;;5074564;28;20055;-73
2022/02/23 00:27:04;;;;;;;6.28;3.95;;;6.50;99.90;;;;;;5082347;28;20024;-76
2022/02/23 00:29:29;;;;;;;8.05;4.95;;;6.40;99.90;;;;;;5079748;28;20042;-76
2022/02/23 00:31:55;;;;;;;6.53;3.67;;;6.30;99.90;;;;;;5079595;28;20028;-74
2022/02/23 00:34:21;;;;;;;9.85;4.75;;;6.30;99.90;;;;;;5076489;28;20066;-75
2022/02/23 00:36:46;;;;;;;6.35;4.05;;;6.40;99.90;;;;;;5079162;28;20051;-74
2022/02/23 00:39:12;;;;;;;7.10;3.33;;;6.30;99.90;;;;;;5081033;28;20657;-73
2022/02/23 00:41:38;;;;;;;5.70;3.13;;;6.40;99.90;;;;;;5068798;28;20020;-73
2022/02/23 00:44:05;;;;;;;4.65;3.03;;;6.40;99.90;;;;;;5072383;28;20079;-73
2022/02/23 00:46:31;;;;;;;7.60;3.25;;;6.40;99.90;;;;;;5075706;28;20035;-75
2022/02/23 00:48:56;;;;;;;9.68;4.15;;;6.30;99.90;;;;;;5075037;28;20453;-74
2022/02/23 00:51:22;;;;;;;3.67;2.50;;;6.20;99.90;;;;;;5076819;28;20068;-74
2022/02/23 00:53:48;;;;;;;4.25;2.70;;;6.20;99.90;;;;;;5064854;28;20020;-74
2022/02/23 00:56:13;;;;;;;3.90;2.63;;;6.20;99.90;;;;;;5074225;28;20059;-74
2022/02/23 00:58:39;;;;;;;4.68;2.65;;;6.40;99.90;;;;;;5074232;28;20103;-73
2022/02/23 01:01:05;;;;;;;3.72;2.67;;;6.50;99.90;;;;;;5074530;28;20515;-74
2022/02/23 01:03:31;;;;;;;5.05;2.67;;;6.40;99.90;;;;;;5072825;28;20502;-73
2022/02/23 01:05:56;;;;;;;4.68;2.90;;;6.30;99.90;;;;;;5060483;28;20028;-75
2022/02/23 01:08:22;;;;;;;3.20;2.42;;;6.30;99.90;;;;;;5059807;28;20063;-75
2022/02/23 01:10:48;;;;;;;6.25;4.15;;;6.40;99.90;;;;;;5076818;28;20029;-73
2022/02/23 01:13:14;;;;;;;6.85;2.67;;;6.40;99.90;;;;;;5082318;28;20028;-74
2022/02/23 01:15:40;;;;;;;14.95;3.05;;;6.40;99.90;;;;;;5063920;28;20386;-74
2022/02/23 01:18:05;;;;;;;3.78;2.60;;;6.30;99.90;;;;;;5062167;28;20074;-73
2022/02/23 01:20:31;;;;;;;7.30;2.80;;;6.20;99.90;;;;;;5054850;28;20086;-74
2022/02/23 01:22:59;;;;;;;6.55;4.05;;;6.20;99.90;;;;;;5076140;28;20722;-74
2022/02/23 01:25:25;;;;;;;5.55;3.30;;;6.20;99.90;;;;;;5069396;28;20115;-74
2022/02/23 01:27:52;;;;;;;5.97;3.05;;;6.10;99.90;;;;;;5074988;28;20031;-73
2022/02/23 01:30:18;;;;;;;5.80;3.67;;;6.00;99.90;;;;;;5076110;28;20068;-74
2022/02/23 01:32:44;;;;;;;7.25;3.20;;;6.00;99.90;;;;;;5066501;28;20513;-73
2022/02/23 01:35:11;;;;;;;4.78;2.67;;;5.90;99.90;;;;;;5075120;28;20032;-74
2022/02/23 01:37:37;;;;;;;4.47;3.20;;;5.90;99.90;;;;;;5072799;28;20035;-76
2022/02/23 01:40:04;;;;;;;5.57;2.63;;;5.90;99.90;;;;;;5072971;28;20036;-73
2022/02/23 01:42:29;;;;;;;5.93;2.60;;;5.90;99.90;;;;;;5080781;28;20497;-74
2022/02/23 01:44:55;;;;;;;2.70;2.22;;;5.90;99.90;;;;;;5076436;28;20035;-73
2022/02/23 01:47:21;;;;;;;2.97;2.20;;;5.80;99.90;;;;;;5070277;28;20559;-73
2022/02/23 01:49:47;;;;;;;2.60;2.00;;;5.80;99.90;;;;;;5075032;28;20048;-73
2022/02/23 01:52:12;;;;;;;5.80;3.72;;;5.80;99.90;;;;;;5078078;28;20313;-75
2022/02/23 01:54:38;;;;;;;3.70;2.97;;;5.80;99.90;;;;;;5070642;28;20039;-72
2022/02/23 01:57:04;;;;;;;3.28;2.42;;;5.70;99.90;;;;;;5077862;28;20024;-72
2022/02/23 01:59:30;;;;;;;3.22;2.45;;;5.70;99.90;;;;;;5062080;28;20016;-74
2022/02/23 02:01:56;;;;;;;3.50;2.40;;;5.60;99.90;;;;;;5071217;28;20034;-75
2022/02/23 02:04:22;;;;;;;4.57;2.88;;;5.70;99.90;;;;;;5068335;28;20020;-74
2022/02/23 02:06:51;;;;;;;7.22;2.92;;;5.70;99.90;;;;;;5066132;28;20032;-73
2022/02/23 02:09:20;;;;;;;7.20;2.85;;;5.60;99.90;;;;;;5067273;28;20061;-73
2022/02/23 02:11:46;;;;;;;6.65;2.17;;;5.50;99.90;;;;;;5081413;28;20021;-73
2022/02/23 02:14:12;;;;;;;4.78;2.80;;;5.50;99.90;;;;;;5083521;28;20542;-73
2022/02/23 02:16:38;;;;;;;3.10;1.90;;;5.50;99.90;;;;;;5076113;28;20097;-74
2022/02/23 02:19:04;;;;;;;3.20;1.92;;;5.50;99.90;;;;;;5080513;28;20497;-73
2022/02/23 02:21:49;;;;;;;5.63;3.28;;;5.50;99.90;;;;;;5083019;28;20046;-73
2022/02/23 02:24:15;;;;;;;4.18;2.40;;;5.50;99.90;;;;;;5085270;28;20058;-72
2022/02/23 02:26:41;;;;;;;5.80;3.33;;;5.40;99.90;;;;;;5065020;28;20032;-73
2022/02/23 02:29:06;;;;;;;4.35;2.10;;;5.40;99.90;;;;;;5071410;28;20020;-74
2022/02/23 02:31:32;;;;;;;4.15;2.25;;;5.50;99.90;;;;;;5075188;28;20020;-72
2022/02/23 02:33:59;;;;;;;3.63;2.03;;;5.40;99.90;;;;;;5081724;28;20021;-74
2022/02/23 02:36:25;;;;;;;2.92;2.22;;;5.40;99.90;;;;;;5079138;28;20062;-73
2022/02/23 02:38:50;;;;;;;3.60;2.58;;;5.40;99.90;;;;;;5066919;28;20339;-74
2022/02/23 02:41:16;;;;;;;4.15;2.65;;;5.30;99.90;;;;;;5078713;28;20430;-74
2022/02/23 02:43:42;;;;;;;3.25;2.10;;;5.40;99.90;;;;;;5081469;28;20604;-73
2022/02/23 02:46:08;;;;;;;2.70;2.40;;;5.40;99.90;;;;;;5080568;28;20118;-73
2022/02/23 02:48:33;;;;;;;5.10;2.67;;;5.30;99.90;;;;;;5081003;28;20033;-74
2022/02/23 02:50:59;;;;;;;6.47;3.45;;;5.40;99.90;;;;;;5082805;28;20024;-74
2022/02/23 02:53:25;;;;;;;5.20;2.65;;;5.30;99.90;;;;;;5061292;28;20024;-74
2022/02/23 02:55:50;;;;;;;3.65;2.58;;;5.30;99.90;;;;;;5076264;28;20027;-75
2022/02/23 02:58:17;;;;;;;3.03;2.20;;;5.30;99.90;;;;;;5082369;28;20494;-73
2022/02/23 03:00:43;;;;;;;5.38;1.95;;;5.30;99.90;;;;;;5075016;28;20024;-73
2022/02/23 03:03:08;;;;;;;4.70;2.03;;;5.30;99.90;;;;;;5078065;28;20028;-74
2022/02/23 03:05:34;;;;;;;9.05;2.13;;;5.20;99.90;;;;;;5081097;28;20024;-74
2022/02/23 03:08:00;;;;;;;3.75;2.03;;;5.20;99.90;;;;;;5079422;28;20091;-73
2022/02/23 03:10:26;;;;;;;2.95;2.03;;;5.10;99.90;;;;;;5081426;28;20017;-74
2022/02/23 03:12:51;;;;;;;5.63;2.47;;;5.10;99.90;;;;;;5085506;28;20028;-73
2022/02/23 03:15:17;;;;;;;1.75;1.20;;;5.10;99.90;;;;;;5067220;28;20078;-73
2022/02/23 03:17:43;;;;;;;3.30;1.77;;;5.10;99.90;;;;;;5080288;28;20028;-73
2022/02/23 03:20:09;;;;;;;2.45;1.90;;;5.10;99.90;;;;;;5068187;28;20085;-73
2022/02/23 03:22:35;;;;;;;2.78;1.73;;;5.10;99.90;;;;;;5081003;28;20432;-73
2022/02/23 03:25:03;;;;;;;3.05;1.58;;;5.00;99.90;;;;;;5070858;28;20043;-75
2022/02/23 03:27:28;;;;;;;5.15;2.33;;;5.00;99.90;;;;;;5065378;28;20024;-73
2022/02/23 03:29:54;;;;;;;3.92;3.22;;;5.00;99.90;;;;;;5073422;28;20114;-74
2022/02/23 03:32:20;;;;;;;6.05;2.50;;;5.00;99.90;;;;;;5079215;28;20052;-73
2022/02/23 03:34:46;;;;;;;5.43;2.30;;;5.00;99.90;;;;;;5073082;28;20025;-74
2022/02/23 03:37:12;;;;;;;4.43;1.85;;;5.00;99.90;;;;;;5067594;28;20035;-74
2022/02/23 03:39:37;;;;;;;1.77;1.58;;;5.00;99.90;;;;;;5059811;28;20335;-73
2022/02/23 03:42:03;;;;;;;3.00;1.85;;;5.00;99.90;;;;;;5078349;28;20107;-74
2022/02/23 03:44:29;;;;;;;4.70;2.55;;;5.00;99.90;;;;;;5077707;28;20107;-72
2022/02/23 03:46:55;;;;;;;3.95;3.15;;;4.90;99.90;;;;;;5066587;28;20453;-74
2022/02/23 03:49:21;;;;;;;3.90;2.47;;;4.90;99.90;;;;;;5059887;28;20043;-73
2022/02/23 03:51:46;;;;;;;8.32;2.78;;;4.90;99.90;;;;;;5067026;28;20039;-73
2022/02/23 03:54:12;;;;;;;7.35;2.17;;;4.90;99.90;;;;;;5080268;28;20104;-74
2022/02/23 03:56:38;;;;;;;3.22;2.00;;;4.90;99.90;;;;;;5064723;28;20040;-73
2022/02/23 03:59:06;;;;;;;3.05;2.17;;;4.90;99.90;;;;;;5064270;28;20114;-72
2022/02/23 04:01:33;;;;;;;5.25;2.47;;;4.90;99.90;;;;;;5067134;28;20034;-72
2022/02/23 04:04:00;;;;;;;5.03;3.47;;;4.90;99.90;;;;;;5081573;28;20044;-72
2022/02/23 04:06:27;;;;;;;3.22;2.20;;;4.90;99.90;;;;;;5074376;28;20107;-72
2022/02/23 04:08:53;;;;;;;3.08;1.95;;;4.90;99.90;;;;;;5079002;28;20517;-73
2022/02/23 04:11:19;;;;;;;4.80;3.10;;;5.00;99.90;;;;;;5076923;28;20023;-73
2022/02/23 04:13:45;;;;;;;1.67;1.50;;;5.00;99.90;;;;;;5078776;28;20154;-72
2022/02/23 04:16:10;;;;;;;3.08;2.30;;;4.90;99.90;;;;;;5078464;28;20423;-73
2022/02/23 04:18:36;;;;;;;4.25;2.15;;;4.90;99.90;;;;;;5073039;28;20036;-72
2022/02/23 04:21:04;;;;;;;3.92;2.25;;;4.90;99.90;;;;;;5079712;28;20054;-73
2022/02/23 04:23:29;;;;;;;3.17;2.53;;;4.80;99.90;;;;;;5082877;28;20031;-74
2022/02/23 04:25:56;;;;;;;4.90;3.03;;;4.80;99.90;;;;;;5077443;28;20032;-74
2022/02/23 04:28:25;;;;;;;4.22;2.60;;;4.90;99.90;;;;;;5068464;28;20614;-73
2022/02/23 04:30:51;;;;;;;7.32;6.32;;;4.80;99.90;;;;;;5056277;28;20040;-74
2022/02/23 04:33:17;;;;;;;5.82;2.67;;;4.80;99.90;;;;;;5077387;28;20093;-74
2022/02/23 04:35:43;;;;;;;4.60;2.85;;;4.90;99.90;;;;;;5062584;28;20039;-75
2022/02/23 04:38:09;;;;;;;4.05;2.30;;;4.90;99.90;;;;;;5076993;28;20031;-72
2022/02/23 04:40:35;;;;;;;5.60;2.15;;;5.00;99.90;;;;;;5066109;28;20085;-73
2022/02/23 04:43:01;;;;;;;3.72;2.63;;;4.90;99.90;;;;;;5076434;28;20047;-73
2022/02/23 04:45:27;;;;;;;2.25;2.03;;;4.90;99.90;;;;;;5073637;28;20572;-73
2022/02/23 04:47:53;;;;;;;6.30;2.15;;;4.90;99.90;;;;;;5080368;28;20154;-73
2022/02/23 04:50:25;;;;;;;3.83;2.42;;;4.90;99.90;;;;;;5077435;28;20375;-75
2022/02/23 04:52:54;;;;;;;9.80;2.70;;;4.90;99.90;;;;;;5083091;28;20035;-76
2022/02/23 04:55:20;;;;;;;6.55;2.45;;;4.90;99.90;;;;;;5079070;28;20043;-73
2022/02/23 04:57:46;;;;;;;2.95;2.33;;;4.90;99.90;;;;;;5065927;28;20028;-74
2022/02/23 05:00:14;;;;;;;5.35;2.35;;;5.00;99.90;;;;;;5073004;28;20036;-73
2022/02/23 05:02:40;;;;;;;3.95;2.55;;;5.00;99.90;;;;;;5081309;28;20028;-74
2022/02/23 05:05:06;;;;;;;4.43;2.28;;;5.00;99.90;;;;;;5062744;28;20033;-74
2022/02/23 05:07:33;;;;;;;3.90;2.20;;;5.10;99.90;;;;;;5079690;28;20031;-74
2022/02/23 05:09:59;;;;;;;3.70;2.50;;;5.10;99.90;;;;;;5079102;28;20021;-74
2022/02/23 05:12:25;;;;;;;7.15;2.60;;;5.10;99.90;;;;;;5061498;28;20017;-73
2022/02/23 05:14:51;;;;;;;6.00;2.78;;;5.10;99.90;;;;;;5082239;28;20054;-73
2022/02/23 05:17:17;;;;;;;5.50;3.05;;;5.00;99.90;;;;;;5072879;28;20499;-74
2022/02/23 05:19:44;;;;;;;6.32;3.33;;;4.90;99.90;;;;;;5071677;28;20036;-74
2022/02/23 05:22:10;;;;;;;5.20;2.33;;;4.90;99.90;;;;;;5065189;28;20115;-73
2022/02/23 05:24:36;;;;;;;2.83;2.22;;;4.90;99.90;;;;;;5087132;28;20093;-73
2022/02/23 05:27:02;;;;;;;3.75;2.78;;;5.00;99.90;;;;;;5072649;28;20029;-74
2022/02/23 05:29:31;;;;;;;5.82;2.80;;;4.90;99.90;;;;;;5076726;28;20091;-74
2022/02/23 05:31:57;;;;;;;3.08;2.55;;;4.80;99.90;;;;;;5078750;28;20017;-74
2022/02/23 05:34:23;;;;;;;4.50;2.60;;;4.80;99.90;;;;;;5058886;28;20058;-73
2022/02/23 05:36:54;;;;;;;3.88;2.10;;;4.90;99.90;;;;;;5070566;28;20020;-73
2022/02/23 05:39:21;;;;;;;4.93;2.92;;;4.90;99.90;;;;;;5083271;28;20032;-74
2022/02/23 05:41:52;;;;;;;5.90;3.08;;;4.90;99.90;;;;;;5093064;28;20027;-73
2022/02/23 05:44:18;;;;;;;7.20;3.63;;;4.90;99.90;;;;;;5077769;28;20428;-73
2022/02/23 05:46:44;;;;;;;7.00;3.33;;;4.90;99.90;;;;;;5093447;28;20032;-74
2022/02/23 05:49:10;;;;;;;10.23;3.50;;;4.90;99.90;;;;;;5081992;28;20296;-74
2022/02/23 05:51:39;;;;;;;4.47;2.58;;;4.90;99.90;;;;;;5084799;28;20032;-74
2022/02/23 05:54:06;;;;;;;4.97;2.90;;;4.90;99.90;;;;;;5082259;28;20035;-74
2022/02/23 05:56:32;;;;;;;3.65;2.88;;;4.90;99.90;;;;;;5061275;28;20067;-73
2022/02/23 05:58:58;;;;;;;4.85;2.42;;;4.90;99.90;;;;;;5093578;28;20562;-73
2022/02/23 06:01:24;;;;;;;6.75;2.80;;;5.00;99.90;;;;;;5089625;28;20016;-73
2022/02/23 06:03:51;;;;;;;4.15;2.80;;;5.00;99.90;;;;;;5088402;28;20294;-74
2022/02/23 06:06:17;;;;;;;7.55;2.83;;;5.00;99.90;;;;;;5087972;28;20571;-73
2022/02/23 06:08:43;;;;;;;4.53;2.92;;;5.00;99.90;;;;;;5085743;28;20153;-75
2022/02/23 06:11:09;;;;;;;10.57;3.15;;;5.00;99.90;;;;;;5076476;28;20565;-74
2022/02/23 06:13:35;;;;;;;5.82;3.88;;;5.00;99.90;;;;;;5082595;28;20028;-74
2022/02/23 06:16:01;;;;;;;5.82;4.40;;;5.00;99.90;;;;;;5074637;28;20032;-74
2022/02/23 06:18:28;;;;;;;5.47;4.78;;;5.00;99.90;;;;;;5086480;28;20111;-73
2022/02/23 06:20:55;;;;;;;6.13;3.63;;;5.00;99.90;;;;;;5068314;28;20078;-73
2022/02/23 06:23:25;;;;;;;7.60;3.00;;;5.00;99.90;;;;;;5083226;28;20029;-73
2022/02/23 06:25:53;;;;;;;7.10;3.35;;;5.10;99.90;;;;;;5081098;28;20077;-73
2022/02/23 06:28:19;;;;;;;9.63;3.85;;;5.20;99.90;;;;;;5057849;28;20079;-73
2022/02/23 06:30:46;;;;;;;6.63;3.63;;;5.30;99.90;;;;;;5074164;28;20097;-74
2022/02/23 06:33:18;;;;;;;7.70;4.80;;;5.30;99.90;;;;;;5066413;28;20016;-74
2022/02/23 06:35:46;;;;;;;7.20;3.85;;;5.30;99.90;;;;;;5074345;28;20138;-73
2022/02/23 06:38:12;;;;;;;6.32;3.72;;;5.30;99.90;;;;;;5073527;28;20394;-75
2022/02/23 06:40:38;;;;;;;3.67;3.28;;;5.40;99.90;;;;;;5082743;28;20024;-73
2022/02/23 06:43:04;;;;;;;10.43;4.32;;;5.40;99.90;;;;;;5076009;28;20041;-75
2022/02/23 06:45:29;;;;;;;3.80;3.05;;;5.40;99.90;;;;;;5080970;28;20025;-75
2022/02/23 06:47:55;;;;;;;5.72;4.10;;;5.40;99.90;;;;;;5080727;28;20048;-74
2022/02/23 06:50:21;;;;;;;5.88;4.07;;;5.50;99.90;;;;;;5066671;28;20107;-73
2022/02/23 06:52:48;;;;;;;9.77;4.07;;;5.50;99.90;;;;;;5073352;28;20164;-74
2022/02/23 06:55:15;;;;;;;12.27;3.25;;;5.60;99.90;;;;;;5067330;28;20044;-74
2022/02/23 06:57:45;;;;;;;6.15;3.92;;;5.60;99.90;;;;;;5075760;28;20078;-75
2022/02/23 07:00:12;;;;;;;8.60;3.38;;;5.70;99.90;;;;;;5078842;28;20035;-73
2022/02/23 07:02:38;;;;;;;4.80;3.72;;;5.80;99.90;;;;;;5076591;28;20028;-73
2022/02/23 07:05:06;;;;;;;9.43;4.80;;;5.90;99.90;;;;;;5078251;28;20088;-73
2022/02/23 07:07:32;;;;;;;6.85;4.35;;;6.00;99.90;;;;;;5076008;28;20109;-73
2022/02/23 07:09:58;;;;;;;10.10;4.60;;;6.20;99.90;;;;;;5077066;28;20025;-73
2022/02/23 07:12:27;;;;;;;10.20;5.00;;;6.40;99.90;;;;;;5079571;28;20104;-75
2022/02/23 07:14:54;;;;;;;6.18;3.60;;;6.50;99.90;;;;;;5082953;28;20119;-74
2022/02/23 07:17:19;;;;;;;5.25;3.85;;;6.70;99.90;;;;;;5081971;28;20482;-74
2022/02/23 07:19:45;;;;;;;9.48;3.83;;;6.80;99.90;;;;;;5086038;28;20036;-72
2022/02/23 07:22:11;;;;;;;4.25;3.08;;;7.00;99.90;;;;;;5058593;28;20032;-74
2022/02/23 07:24:37;;;;;;;8.27;3.63;;;7.20;99.90;;;;;;5064880;28;20020;-74
2022/02/23 07:27:08;;;;;;;4.80;3.20;;;7.10;99.90;;;;;;5067842;28;20032;-73
2022/02/23 07:29:34;;;;;;;8.38;3.25;;;7.10;99.90;;;;;;5052076;28;20044;-73
2022/02/23 07:32:00;;;;;;;4.25;3.70;;;7.10;99.90;;;;;;5079968;28;20619;-73
2022/02/23 07:34:25;;;;;;;8.48;3.33;;;7.30;99.90;;;;;;5077573;28;20016;-75
2022/02/23 07:36:51;;;;;;;10.63;3.67;;;7.30;99.90;;;;;;5058757;28;20127;-73
2022/02/23 07:39:17;;;;;;;6.88;3.80;;;7.40;99.90;;;;;;5080853;28;20032;-73
2022/02/23 07:41:43;;;;;;;4.88;3.28;;;7.60;99.90;;;;;;5063800;28;20040;-74
2022/02/23 07:44:08;;;;;;;11.25;4.25;;;7.80;99.90;;;;;;5073039;28;20031;-73
2022/02/23 07:46:34;;;;;;;18.13;4.05;;;7.90;99.90;;;;;;5076046;28;20491;-73
2022/02/23 07:49:01;;;;;;;5.97;4.20;;;8.00;99.90;;;;;;5059563;28;20093;-75
2022/02/23 07:51:27;;;;;;;15.93;4.57;;;8.10;99.90;;;;;;5053936;28;20417;-73
2022/02/23 07:53:55;;;;;;;10.73;5.18;;;8.40;99.90;;;;;;5080655;28;20033;-73
2022/02/23 07:56:22;;;;;;;10.48;5.25;;;8.60;99.90;;;;;;5073883;28;20452;-74
2022/02/23 07:58:49;;;;;;;22.77;5.20;;;8.70;99.90;;;;;;5074275;28;20112;-74
2022/02/23 08:01:34;;;;;;;27.65;4.72;;;8.80;99.90;;;;;;5082945;28;20077;-75
2022/02/23 08:04:01;;;;;;;15.75;4.43;;;8.80;99.90;;;;;;5068841;28;20032;-73
2022/02/23 08:06:27;;;;;;;13.10;4.40;;;9.00;99.90;;;;;;5085605;28;20461;-74
2022/02/23 08:08:55;;;;;;;6.40;4.15;;;9.10;99.90;;;;;;5082784;28;20427;-74
2022/02/23 08:11:21;;;;;;;12.55;7.00;;;9.20;99.90;;;;;;5070970;28;20058;-74
2022/02/23 08:13:48;;;;;;;11.80;6.85;;;9.30;99.90;;;;;;5069958;28;20028;-74
2022/02/23 08:21:57;;;;;;;12.95;7.93;;;9.50;99.90;;;;;;5080786;28;20046;-74
2022/02/23 08:24:23;;;;;;;17.45;7.55;;;9.60;99.90;;;;;;5082458;28;20116;-74
2022/02/23 08:26:49;;;;;;;15.05;6.95;;;9.70;99.90;;;;;;5089316;28;20024;-73
2022/02/23 08:29:15;;;;;;;18.02;6.15;;;9.70;99.90;;;;;;5079955;28;20025;-74
2022/02/23 08:31:41;;;;;;;11.73;5.22;;;9.80;99.90;;;;;;5070094;28;20029;-75
2022/02/23 08:34:06;;;;;;;9.18;4.38;;;9.90;99.90;;;;;;5085635;28;20016;-74
2022/02/23 08:36:32;;;;;;;6.03;4.45;;;10.10;99.90;;;;;;5082239;28;20074;-75
2022/02/23 08:38:58;;;;;;;9.25;4.80;;;10.10;99.90;;;;;;5060855;28;20114;-74
2022/02/23 08:41:24;;;;;;;9.10;4.60;;;10.20;99.90;;;;;;5076260;28;20028;-75
2022/02/23 08:43:50;;;;;;;8.35;4.25;;;10.20;99.90;;;;;;5071914;28;20473;-74
2022/02/23 08:46:16;;;;;;;6.43;3.50;;;10.40;99.90;;;;;;5069568;28;20070;-70
2022/02/23 08:48:42;;;;;;;10.77;3.25;;;10.50;99.90;;;;;;5070919;28;20111;-70
2022/02/23 08:51:08;;;;;;;8.32;4.55;;;10.60;99.90;;;;;;5073283;28;20024;-70
2022/02/23 08:53:34;;;;;;;8.77;3.28;;;10.70;99.90;;;;;;5051200;28;20024;-71
2022/02/23 08:56:00;;;;;;;4.72;2.80;;;10.70;99.90;;;;;;5069764;28;20414;-70
2022/02/23 08:58:25;;;;;;;5.22;3.20;;;10.80;99.90;;;;;;5072747;28;20040;-70
2022/02/23 09:00:52;;;;;;;6.93;2.95;;;10.80;99.90;;;;;;5068287;28;20028;-71
2022/02/23 09:03:21;;;;;;;11.13;4.28;;;11.00;99.90;;;;;;5080030;28;20036;-69
2022/02/23 09:05:47;;;;;;;2.63;1.88;;;11.10;99.90;;;;;;5070685;28;20029;-70
2022/02/23 09:08:13;;;;;;;4.35;2.85;;;11.20;99.90;;;;;;5067926;28;20066;-70
2022/02/23 09:10:40;;;;;;;5.22;2.33;;;11.40;99.90;;;;;;5070546;28;20074;-67
2022/02/23 09:13:07;;;;;;;5.18;3.15;;;11.50;99.90;;;;;;5072446;28;20020;-68
2022/02/23 09:15:34;;;;;;;10.50;3.85;;;11.60;99.90;;;;;;5073298;28;20093;-67
2022/02/23 09:18:01;;;;;;;12.30;4.18;;;11.60;99.90;;;;;;5088194;28;20079;-68
2022/02/23 09:20:28;;;;;;;11.27;4.43;;;11.70;99.90;;;;;;5071521;28;20028;-68
2022/02/23 09:22:54;;;;;;;11.77;3.78;;;11.70;99.90;;;;;;5073611;28;20017;-68
2022/02/23 09:25:21;;;;;;;6.15;3.08;;;11.70;99.90;;;;;;5078749;28;20482;-70
2022/02/23 09:27:47;;;;;;;7.53;2.95;;;11.70;99.90;;;;;;5087231;28;20040;-71
2022/02/23 09:30:14;;;;;;;7.53;3.00;;;11.60;99.90;;;;;;5073188;28;20099;-68
2022/02/23 09:32:41;;;;;;;9.65;2.80;;;11.60;99.90;;;;;;5087490;28;20073;-68
2022/02/23 09:35:11;;;;;;;7.05;2.55;;;11.60;99.90;;;;;;5074138;28;20016;-69
2022/02/23 09:37:37;;;;;;;3.13;2.20;;;11.60;99.90;;;;;;5073169;28;20086;-69
2022/02/23 09:40:06;;;;;;;3.20;2.83;;;11.60;99.90;;;;;;5088469;28;20081;-70
2022/02/23 09:42:32;;;;;;;3.20;2.88;;;11.60;99.90;;;;;;5080338;28;20028;-68
2022/02/23 09:45:00;;;;;;;9.32;3.22;;;11.50;99.90;;;;;;5091809;28;20064;-69
2022/02/23 09:47:30;;;;;;;6.43;2.30;;;11.50;99.90;;;;;;5090450;28;20024;-68
2022/02/23 09:49:56;;;;;;;7.32;3.15;;;11.50;99.90;;;;;;5090734;28;20015;-69
2022/02/23 09:52:24;;;;;;;7.65;3.00;;;11.60;99.90;;;;;;5066979;28;20054;-69
2022/02/23 09:55:01;;;;;;;7.05;2.53;;;11.70;99.90;;;;;;5089085;28;20059;-70
2022/02/23 09:57:28;;;;;;;6.25;3.05;;;11.70;99.90;;;;;;5098407;28;20045;-71
2022/02/23 09:59:54;;;;;;;6.45;4.07;;;11.80;99.90;;;;;;5103894;28;20124;-72
2022/02/23 10:02:21;;;;;;;5.65;2.20;;;11.80;99.90;;;;;;5076981;28;20072;-69
2022/02/23 10:04:50;;;;;;;4.80;2.45;;;11.80;99.90;;;;;;5092113;28;20043;-72
2022/02/23 10:07:26;;;;;;;2.40;2.17;;;11.90;99.90;;;;;;5065108;28;20050;-68
2022/02/23 10:09:54;;;;;;;4.45;1.95;;;11.90;99.90;;;;;;5091735;28;20024;-69
2022/02/23 10:12:26;;;;;;;1.95;1.45;;;11.90;99.90;;;;;;5091511;28;20034;-68
2022/02/23 10:15:18;;;;;;;6.18;2.72;;;11.90;99.90;;;;;;5092791;28;20026;-71
2022/02/23 10:17:50;;;;;;;5.70;2.45;;;11.90;99.90;;;;;;5073164;28;20033;-70
2022/02/23 10:20:21;;;;;;;4.82;1.95;;;12.00;99.90;;;;;;5090140;28;20486;-70
2022/02/23 10:22:48;;;;;;;3.42;1.77;;;12.00;99.90;;;;;;5064942;28;20042;-68
2022/02/23 10:25:24;;;;;;;2.47;1.90;;;12.10;99.90;;;;;;5092593;28;20024;-68
2022/02/23 10:27:50;;;;;;;4.40;2.20;;;12.10;99.90;;;;;;5069659;28;20029;-70
2022/02/23 10:30:28;;;;;;;4.13;2.13;;;12.10;99.90;;;;;;5071756;28;20382;-68
2022/02/23 10:32:56;;;;;;;5.35;2.33;;;12.10;99.90;;;;;;5082454;28;20020;-69
2022/02/23 10:35:28;;;;;;;7.45;2.22;;;12.10;99.90;;;;;;5076780;28;20086;-69
2022/02/23 10:37:55;;;;;;;4.70;1.67;;;12.10;99.90;;;;;;5070669;28;20047;-68
2022/02/23 10:40:21;;;;;;;6.50;2.13;;;12.20;99.90;;;;;;5074731;28;20070;-66
2022/02/23 10:42:46;;;;;;;2.85;1.98;;;12.30;99.90;;;;;;5073760;28;20020;-67
2022/02/23 10:45:18;;;;;;;3.03;1.88;;;12.30;99.90;;;;;;5084081;28;20032;-69
2022/02/23 10:47:47;;;;;;;3.35;2.00;;;12.40;99.90;;;;;;5091342;28;20467;-69
2022/02/23 10:50:26;;;;;;;3.60;1.60;;;12.40;99.90;;;;;;5092043;28;20466;-68
2022/02/23 10:52:57;;;;;;;6.93;2.25;;;12.40;99.90;;;;;;5073267;28;20028;-70
2022/02/23 10:55:25;;;;;;;5.70;2.50;;;12.40;99.90;;;;;;5089964;28;20108;-68
2022/02/23 10:57:58;;;;;;;2.60;1.70;;;12.40;99.90;;;;;;5074853;28;20028;-69
2022/02/23 11:00:27;;;;;;;23.48;5.15;;;12.40;99.90;;;;;;5087112;28;20099;-68
2022/02/23 11:02:53;;;;;;;2.90;2.15;;;12.40;99.90;;;;;;5063979;28;20025;-71
2022/02/23 11:05:24;;;;;;;5.68;2.22;;;12.40;99.90;;;;;;5063622;28;20344;-69
2022/02/23 11:07:52;;;;;;;3.23;2.70;;;12.40;99.90;;;;;;5070279;28;20506;-70
2022/02/23 11:10:18;;;;;;;3.78;2.30;;;12.40;99.90;;;;;;5074350;28;20096;-68
2022/02/23 11:12:46;;;;;;;5.85;2.05;;;12.30;99.90;;;;;;5084092;28;20111;-69
2022/02/23 11:15:14;;;;;;;3.20;2.25;;;12.20;99.90;;;;;;5080476;28;20040;-68
2022/02/23 11:17:41;;;;;;;5.60;2.17;;;12.20;99.90;;;;;;5071447;28;20025;-69
2022/02/23 11:20:08;;;;;;;2.50;2.05;;;12.20;99.90;;;;;;5072460;28;20024;-68
2022/02/23 11:22:35;;;;;;;4.78;2.45;;;12.20;99.90;;;;;;5078374;28;20387;-69
2022/02/23 11:25:02;;;;;;;3.30;2.70;;;12.10;99.90;;;;;;5075505;28;20389;-70
2022/02/23 11:27:33;;;;;;;7.53;2.28;;;12.00;99.90;;;;;;5070990;28;20032;-71
2022/02/23 11:30:06;;;;;;;3.38;2.03;;;12.00;99.90;;;;;;5071094;28;20028;-68
2022/02/23 11:32:41;;;;;;;2.15;1.85;;;12.00;99.90;;;;;;5065891;28;20103;-67
2022/02/23 11:35:13;;;;;;;6.80;2.83;;;12.00;99.90;;;;;;5087115;28;20065;-71
2022/02/23 11:37:40;;;;;;;;;;;12.00;99.90;;;;;;5091846;28;20050;-67
2022/02/23 11:40:08;;;;;;;3.00;1.10;;;12.10;99.90;;;;;;5089384;28;19908;-69
2022/02/23 11:42:35;;;;;;;4.75;1.95;;;12.10;99.90;;;;;;5070900;28;20578;-68
2022/02/23 11:45:08;;;;;;;1.70;1.00;;;12.10;99.90;;;;;;5072996;28;20028;-71
2022/02/23 11:47:34;;;;;;;3.03;1.77;;;12.10;99.90;;;;;;5071779;28;20028;-68
2022/02/23 11:50:07;;;;;;;1.30;1.02;;;12.20;99.90;;;;;;5069141;28;20161;-68
2022/02/23 11:52:45;;;;;;;1.55;1.10;;;12.20;99.90;;;;;;5078552;28;20198;-68
2022/02/23 11:55:14;;;;;;;3.47;1.40;;;12.20;99.90;;;;;;5077852;28;20021;-69
2022/02/23 11:57:50;;;;;;;2.45;1.50;;;12.30;99.90;;;;;;5070898;28;20370;-69
2022/02/23 12:00:18;;;;;;;2.10;1.50;;;12.30;99.90;;;;;;5070873;28;20482;-68
2022/02/23 12:02:57;;;;;;;4.70;1.20;;;12.30;99.90;;;;;;5072613;28;20036;-71
2022/02/23 12:05:43;;;;;;;2.92;1.50;;;12.30;99.90;;;;;;5082642;28;20035;-72
2022/02/23 12:08:33;;;;;;;3.92;1.67;;;12.40;99.90;;;;;;5066203;28;20089;-71
2022/02/23 12:11:22;;;;;;;3.95;1.55;;;12.40;99.90;;;;;;5073576;28;20471;-68
2022/02/23 12:13:55;;;;;;;10.70;1.92;;;12.40;99.90;;;;;;5084973;28;20114;-68
2022/02/23 12:16:21;;;;;;;3.17;2.28;;;12.50;99.90;;;;;;5077228;28;20028;-69
2022/02/23 12:18:49;;;;;;;5.03;1.77;;;12.50;99.90;;;;;;5092664;28;20020;-69
2022/02/23 12:21:15;;;;;;;5.35;2.40;;;12.50;99.90;;;;;;5080835;28;20028;-69
2022/02/23 12:23:44;;;;;;;10.15;1.90;;;12.50;99.90;;;;;;5089005;28;20032;-69
2022/02/23 12:26:16;;;;;;;5.30;2.65;;;12.50;99.90;;;;;;5076182;28;20040;-69
2022/02/23 12:28:47;;;;;;;4.43;2.35;;;12.50;99.90;;;;;;5082987;28;20027;-70
2022/02/23 12:31:25;;;;;;;7.30;3.50;;;12.60;99.90;;;;;;5089045;28;20054;-70
2022/02/23 12:33:57;;;;;;;2.33;1.73;;;12.60;99.90;;;;;;5083592;28;20520;-70
2022/02/23 12:36:28;;;;;;;6.53;1.98;;;12.70;99.90;;;;;;5064180;28;20401;-70
2022/02/23 12:38:56;;;;;;;2.33;1.75;;;12.80;99.90;;;;;;5075816;28;20509;-68
2022/02/23 12:41:26;;;;;;;3.13;1.33;;;12.70;99.90;;;;;;5066599;28;20028;-68
2022/02/23 12:44:06;;;;;;;1.90;1.50;;;12.70;99.90;;;;;;5074113;28;20024;-69
2022/02/23 12:46:43;;;;;;;3.05;1.60;;;12.60;99.90;;;;;;5089092;28;20077;-70
2022/02/23 12:49:09;;;;;;;6.53;1.98;;;12.70;99.90;;;;;;5080065;28;20021;-70
2022/02/23 12:51:36;;;;;;;5.40;3.63;;;12.70;99.90;;;;;;5069879;28;20016;-69
2022/02/23 12:54:05;;;;;;;5.03;2.65;;;12.70;99.90;;;;;;5070081;28;20062;-71
2022/02/23 12:56:35;;;;;;;8.77;3.58;;;12.70;99.90;;;;;;5088741;28;20020;-70
2022/02/23 12:59:06;;;;;;;1.88;1.42;;;12.70;99.90;;;;;;5088871;28;20486;-71